sensor_id;sensor_type;location;lat;lon;timestamp;P1;durP1;ratioP1;P2;durP2;ratioP2
84854;SDS011;75112;42.668;23.356;2023-12-29T00:00:25;35.17;;;18.25;;
84854;SDS011;75112;42.668;23.356;2023-12-29T00:02:51;38.88;;;19.90;;
84854;SDS011;75112;42.668;23.356;2023-12-29T00:05:16;44.25;;;20.00;;
84854;SDS011;75112;42.668;23.356;2023-12-29T00:07:42;40.63;;;20.13;;
84854;SDS011;75112;42.668;23.356;2023-12-29T00:10:07;36.55;;;20.98;;
84854;SDS011;75112;42.668;23.356;2023-12-29T00:12:33;38.40;;;20.90;;
84854;SDS011;75112;42.668;23.356;2023-12-29T00:14:59;41.53;;;20.95;;
84854;SDS011;75112;42.668;23.356;2023-12-29T00:17:24;39.40;;;20.25;;
84854;SDS011;75112;42.668;23.356;2023-12-29T00:19:50;45.75;;;21.33;;
84854;SDS011;75112;42.668;23.356;2023-12-29T00:22:15;42.72;;;21.63;;
84854;SDS011;75112;42.668;23.356;2023-12-29T00:24:40;44.58;;;23.15;;
84854;SDS011;75112;42.668;23.356;2023-12-29T00:27:06;44.15;;;22.38;;
84854;SDS011;75112;42.668;23.356;2023-12-29T00:29:31;46.70;;;22.20;;
84854;SDS011;75112;42.668;23.356;2023-12-29T00:31:58;40.92;;;22.05;;
84854;SDS011;75112;42.668;23.356;2023-12-29T00:34:25;40.53;;;21.52;;
84854;SDS011;75112;42.668;23.356;2023-12-29T00:36:51;45.75;;;22.88;;
84854;SDS011;75112;42.668;23.356;2023-12-29T00:39:16;47.63;;;22.15;;
84854;SDS011;75112;42.668;23.356;2023-12-29T00:41:42;50.88;;;23.27;;
84854;SDS011;75112;42.668;23.356;2023-12-29T00:44:07;37.72;;;21.65;;
84854;SDS011;75112;42.668;23.356;2023-12-29T00:46:33;43.22;;;21.77;;
84854;SDS011;75112;42.668;23.356;2023-12-29T00:48:58;39.20;;;21.20;;
84854;SDS011;75112;42.668;23.356;2023-12-29T00:51:24;49.70;;;21.85;;
84854;SDS011;75112;42.668;23.356;2023-12-29T00:53:49;41.60;;;21.88;;
84854;SDS011;75112;42.668;23.356;2023-12-29T00:56:15;39.60;;;20.15;;
84854;SDS011;75112;42.668;23.356;2023-12-29T00:58:40;44.55;;;22.90;;
84854;SDS011;75112;42.668;23.356;2023-12-29T01:01:07;42.28;;;21.60;;
84854;SDS011;75112;42.668;23.356;2023-12-29T01:03:34;41.13;;;19.45;;
84854;SDS011;75112;42.668;23.356;2023-12-29T01:05:59;45.03;;;21.85;;
84854;SDS011;75112;42.668;23.356;2023-12-29T01:08:25;35.60;;;19.40;;
84854;SDS011;75112;42.668;23.356;2023-12-29T01:10:50;38.00;;;20.25;;
84854;SDS011;75112;42.668;23.356;2023-12-29T01:13:16;41.60;;;21.83;;
84854;SDS011;75112;42.668;23.356;2023-12-29T01:15:41;48.85;;;20.27;;
84854;SDS011;75112;42.668;23.356;2023-12-29T01:18:10;40.70;;;20.50;;
84854;SDS011;75112;42.668;23.356;2023-12-29T01:20:36;42.35;;;21.85;;
84854;SDS011;75112;42.668;23.356;2023-12-29T01:23:04;47.67;;;22.08;;
84854;SDS011;75112;42.668;23.356;2023-12-29T01:25:29;42.65;;;22.77;;
84854;SDS011;75112;42.668;23.356;2023-12-29T01:27:55;45.13;;;22.63;;
84854;SDS011;75112;42.668;23.356;2023-12-29T01:30:20;37.33;;;20.10;;
84854;SDS011;75112;42.668;23.356;2023-12-29T01:32:45;38.08;;;19.10;;
84854;SDS011;75112;42.668;23.356;2023-12-29T01:35:11;40.45;;;19.52;;
84854;SDS011;75112;42.668;23.356;2023-12-29T01:37:36;34.50;;;18.70;;
84854;SDS011;75112;42.668;23.356;2023-12-29T01:40:02;38.95;;;20.42;;
84854;SDS011;75112;42.668;23.356;2023-12-29T01:42:27;42.65;;;19.92;;
84854;SDS011;75112;42.668;23.356;2023-12-29T01:44:53;39.95;;;19.35;;
84854;SDS011;75112;42.668;23.356;2023-12-29T01:47:19;39.55;;;19.00;;
84854;SDS011;75112;42.668;23.356;2023-12-29T01:49:46;36.97;;;19.88;;
84854;SDS011;75112;42.668;23.356;2023-12-29T01:52:14;37.03;;;19.17;;
84854;SDS011;75112;42.668;23.356;2023-12-29T01:54:42;48.20;;;22.38;;
84854;SDS011;75112;42.668;23.356;2023-12-29T01:57:09;45.05;;;23.73;;
84854;SDS011;75112;42.668;23.356;2023-12-29T01:59:36;47.95;;;22.48;;
84854;SDS011;75112;42.668;23.356;2023-12-29T02:02:03;42.83;;;22.10;;
84854;SDS011;75112;42.668;23.356;2023-12-29T02:04:29;40.65;;;21.23;;
84854;SDS011;75112;42.668;23.356;2023-12-29T02:06:56;43.47;;;21.55;;
84854;SDS011;75112;42.668;23.356;2023-12-29T02:09:22;52.63;;;23.63;;
84854;SDS011;75112;42.668;23.356;2023-12-29T02:11:47;43.97;;;21.92;;
84854;SDS011;75112;42.668;23.356;2023-12-29T02:14:14;43.63;;;22.92;;
84854;SDS011;75112;42.668;23.356;2023-12-29T02:19:30;46.78;;;21.80;;
84854;SDS011;75112;42.668;23.356;2023-12-29T02:22:03;43.47;;;21.70;;
84854;SDS011;75112;42.668;23.356;2023-12-29T02:24:29;40.58;;;19.92;;
84854;SDS011;75112;42.668;23.356;2023-12-29T02:26:58;43.25;;;23.55;;
84854;SDS011;75112;42.668;23.356;2023-12-29T02:29:44;40.50;;;20.33;;
84854;SDS011;75112;42.668;23.356;2023-12-29T02:32:15;43.72;;;19.75;;
84854;SDS011;75112;42.668;23.356;2023-12-29T02:34:43;37.42;;;19.05;;
84854;SDS011;75112;42.668;23.356;2023-12-29T02:37:12;40.60;;;21.17;;
84854;SDS011;75112;42.668;23.356;2023-12-29T02:39:37;41.67;;;20.13;;
84854;SDS011;75112;42.668;23.356;2023-12-29T02:42:03;38.22;;;19.40;;
84854;SDS011;75112;42.668;23.356;2023-12-29T02:44:29;40.20;;;18.75;;
84854;SDS011;75112;42.668;23.356;2023-12-29T02:46:54;37.72;;;20.02;;
84854;SDS011;75112;42.668;23.356;2023-12-29T02:49:20;37.85;;;19.90;;
84854;SDS011;75112;42.668;23.356;2023-12-29T02:51:46;44.70;;;20.60;;
84854;SDS011;75112;42.668;23.356;2023-12-29T02:54:13;39.35;;;19.90;;
84854;SDS011;75112;42.668;23.356;2023-12-29T02:56:38;35.50;;;18.17;;
84854;SDS011;75112;42.668;23.356;2023-12-29T02:59:04;33.03;;;18.40;;
84854;SDS011;75112;42.668;23.356;2023-12-29T03:01:29;37.45;;;18.67;;
84854;SDS011;75112;42.668;23.356;2023-12-29T03:03:54;38.33;;;18.38;;
84854;SDS011;75112;42.668;23.356;2023-12-29T03:06:20;37.45;;;17.45;;
84854;SDS011;75112;42.668;23.356;2023-12-29T03:08:45;40.60;;;20.20;;
84854;SDS011;75112;42.668;23.356;2023-12-29T03:11:11;48.90;;;22.73;;
84854;SDS011;75112;42.668;23.356;2023-12-29T03:13:36;43.47;;;21.75;;
84854;SDS011;75112;42.668;23.356;2023-12-29T03:16:01;50.00;;;23.65;;
84854;SDS011;75112;42.668;23.356;2023-12-29T03:18:27;53.75;;;23.83;;
84854;SDS011;75112;42.668;23.356;2023-12-29T03:20:52;52.33;;;27.08;;
84854;SDS011;75112;42.668;23.356;2023-12-29T03:23:18;59.85;;;28.83;;
84854;SDS011;75112;42.668;23.356;2023-12-29T03:25:43;48.25;;;26.17;;
84854;SDS011;75112;42.668;23.356;2023-12-29T03:28:08;60.78;;;29.00;;
84854;SDS011;75112;42.668;23.356;2023-12-29T03:30:34;52.70;;;26.52;;
84854;SDS011;75112;42.668;23.356;2023-12-29T03:32:59;53.55;;;27.45;;
84854;SDS011;75112;42.668;23.356;2023-12-29T03:35:24;62.72;;;28.63;;
84854;SDS011;75112;42.668;23.356;2023-12-29T03:37:50;52.90;;;27.27;;
84854;SDS011;75112;42.668;23.356;2023-12-29T03:40:15;42.92;;;23.15;;
84854;SDS011;75112;42.668;23.356;2023-12-29T03:42:41;41.00;;;21.58;;
84854;SDS011;75112;42.668;23.356;2023-12-29T03:45:06;39.88;;;21.33;;
84854;SDS011;75112;42.668;23.356;2023-12-29T03:47:32;41.50;;;20.92;;
84854;SDS011;75112;42.668;23.356;2023-12-29T03:49:58;38.38;;;19.85;;
84854;SDS011;75112;42.668;23.356;2023-12-29T03:52:23;44.70;;;21.75;;
84854;SDS011;75112;42.668;23.356;2023-12-29T03:54:48;43.33;;;22.55;;
84854;SDS011;75112;42.668;23.356;2023-12-29T03:57:14;45.42;;;21.17;;
84854;SDS011;75112;42.668;23.356;2023-12-29T03:59:39;36.92;;;21.92;;
84854;SDS011;75112;42.668;23.356;2023-12-29T04:02:05;43.38;;;23.80;;
84854;SDS011;75112;42.668;23.356;2023-12-29T04:04:30;35.63;;;19.58;;
84854;SDS011;75112;42.668;23.356;2023-12-29T04:06:55;43.30;;;20.67;;
84854;SDS011;75112;42.668;23.356;2023-12-29T04:09:21;42.40;;;21.80;;
84854;SDS011;75112;42.668;23.356;2023-12-29T04:11:46;42.08;;;21.48;;
84854;SDS011;75112;42.668;23.356;2023-12-29T04:14:11;43.25;;;21.05;;
84854;SDS011;75112;42.668;23.356;2023-12-29T04:16:38;45.42;;;21.58;;
84854;SDS011;75112;42.668;23.356;2023-12-29T04:19:04;37.58;;;19.05;;
84854;SDS011;75112;42.668;23.356;2023-12-29T04:21:29;41.85;;;20.90;;
84854;SDS011;75112;42.668;23.356;2023-12-29T04:23:55;43.60;;;21.33;;
84854;SDS011;75112;42.668;23.356;2023-12-29T04:26:20;43.80;;;20.77;;
84854;SDS011;75112;42.668;23.356;2023-12-29T04:28:46;41.72;;;20.70;;
84854;SDS011;75112;42.668;23.356;2023-12-29T04:31:11;46.38;;;21.33;;
84854;SDS011;75112;42.668;23.356;2023-12-29T04:33:36;41.33;;;19.98;;
84854;SDS011;75112;42.668;23.356;2023-12-29T04:36:02;37.10;;;19.77;;
84854;SDS011;75112;42.668;23.356;2023-12-29T04:38:27;38.78;;;19.65;;
84854;SDS011;75112;42.668;23.356;2023-12-29T04:40:53;38.88;;;21.17;;
84854;SDS011;75112;42.668;23.356;2023-12-29T04:43:18;34.40;;;20.77;;
84854;SDS011;75112;42.668;23.356;2023-12-29T04:45:43;44.30;;;21.60;;
84854;SDS011;75112;42.668;23.356;2023-12-29T04:48:09;41.42;;;21.17;;
84854;SDS011;75112;42.668;23.356;2023-12-29T04:50:34;44.10;;;22.73;;
84854;SDS011;75112;42.668;23.356;2023-12-29T04:52:59;49.47;;;21.73;;
84854;SDS011;75112;42.668;23.356;2023-12-29T04:55:25;38.50;;;19.23;;
84854;SDS011;75112;42.668;23.356;2023-12-29T04:57:50;41.13;;;19.50;;
84854;SDS011;75112;42.668;23.356;2023-12-29T05:00:16;38.53;;;20.10;;
84854;SDS011;75112;42.668;23.356;2023-12-29T05:02:41;46.65;;;22.35;;
84854;SDS011;75112;42.668;23.356;2023-12-29T05:05:07;42.38;;;21.67;;
84854;SDS011;75112;42.668;23.356;2023-12-29T05:07:33;34.65;;;19.10;;
84854;SDS011;75112;42.668;23.356;2023-12-29T05:09:58;44.35;;;22.00;;
84854;SDS011;75112;42.668;23.356;2023-12-29T05:12:23;40.30;;;20.77;;
84854;SDS011;75112;42.668;23.356;2023-12-29T05:14:49;38.95;;;19.67;;
84854;SDS011;75112;42.668;23.356;2023-12-29T05:17:14;43.55;;;22.10;;
84854;SDS011;75112;42.668;23.356;2023-12-29T05:19:39;52.70;;;24.10;;
84854;SDS011;75112;42.668;23.356;2023-12-29T05:22:05;43.92;;;23.30;;
84854;SDS011;75112;42.668;23.356;2023-12-29T05:24:30;55.80;;;26.00;;
84854;SDS011;75112;42.668;23.356;2023-12-29T05:26:56;54.90;;;26.85;;
84854;SDS011;75112;42.668;23.356;2023-12-29T05:29:21;49.85;;;25.63;;
84854;SDS011;75112;42.668;23.356;2023-12-29T05:31:47;46.78;;;24.60;;
84854;SDS011;75112;42.668;23.356;2023-12-29T05:34:12;55.83;;;27.75;;
84854;SDS011;75112;42.668;23.356;2023-12-29T05:36:38;55.22;;;26.90;;
84854;SDS011;75112;42.668;23.356;2023-12-29T05:39:03;57.05;;;27.40;;
84854;SDS011;75112;42.668;23.356;2023-12-29T05:41:29;56.58;;;27.00;;
84854;SDS011;75112;42.668;23.356;2023-12-29T05:43:54;55.78;;;28.15;;
84854;SDS011;75112;42.668;23.356;2023-12-29T05:46:38;65.15;;;28.90;;
84854;SDS011;75112;42.668;23.356;2023-12-29T05:49:03;59.15;;;28.20;;
84854;SDS011;75112;42.668;23.356;2023-12-29T05:51:29;55.15;;;27.35;;
84854;SDS011;75112;42.668;23.356;2023-12-29T05:53:54;55.97;;;25.33;;
84854;SDS011;75112;42.668;23.356;2023-12-29T05:56:20;51.78;;;25.98;;
84854;SDS011;75112;42.668;23.356;2023-12-29T05:58:45;60.50;;;29.40;;
84854;SDS011;75112;42.668;23.356;2023-12-29T06:01:10;51.63;;;27.25;;
84854;SDS011;75112;42.668;23.356;2023-12-29T06:03:36;58.40;;;30.67;;
84854;SDS011;75112;42.668;23.356;2023-12-29T06:06:02;55.00;;;30.20;;
84854;SDS011;75112;42.668;23.356;2023-12-29T06:08:27;61.40;;;28.80;;
84854;SDS011;75112;42.668;23.356;2023-12-29T06:10:53;54.85;;;28.98;;
84854;SDS011;75112;42.668;23.356;2023-12-29T06:13:18;63.97;;;28.00;;
84854;SDS011;75112;42.668;23.356;2023-12-29T06:15:44;51.63;;;26.88;;
84854;SDS011;75112;42.668;23.356;2023-12-29T06:18:09;58.35;;;30.33;;
84854;SDS011;75112;42.668;23.356;2023-12-29T06:20:35;51.08;;;26.75;;
84854;SDS011;75112;42.668;23.356;2023-12-29T06:23:00;57.58;;;29.67;;
84854;SDS011;75112;42.668;23.356;2023-12-29T06:25:25;62.03;;;30.08;;
84854;SDS011;75112;42.668;23.356;2023-12-29T06:27:51;58.65;;;29.13;;
84854;SDS011;75112;42.668;23.356;2023-12-29T06:30:16;58.03;;;29.80;;
84854;SDS011;75112;42.668;23.356;2023-12-29T06:32:42;59.65;;;28.25;;
84854;SDS011;75112;42.668;23.356;2023-12-29T06:35:08;55.42;;;27.23;;
84854;SDS011;75112;42.668;23.356;2023-12-29T06:37:37;54.42;;;27.02;;
84854;SDS011;75112;42.668;23.356;2023-12-29T06:40:04;57.83;;;27.98;;
84854;SDS011;75112;42.668;23.356;2023-12-29T06:42:30;52.58;;;26.60;;
84854;SDS011;75112;42.668;23.356;2023-12-29T06:44:56;50.28;;;25.75;;
84854;SDS011;75112;42.668;23.356;2023-12-29T06:47:21;56.05;;;25.50;;
84854;SDS011;75112;42.668;23.356;2023-12-29T06:49:47;56.22;;;26.75;;
84854;SDS011;75112;42.668;23.356;2023-12-29T06:52:13;46.65;;;25.45;;
84854;SDS011;75112;42.668;23.356;2023-12-29T06:54:38;49.42;;;25.73;;
84854;SDS011;75112;42.668;23.356;2023-12-29T06:57:04;46.60;;;26.73;;
84854;SDS011;75112;42.668;23.356;2023-12-29T06:59:29;50.63;;;27.08;;
84854;SDS011;75112;42.668;23.356;2023-12-29T07:01:55;50.53;;;26.23;;
84854;SDS011;75112;42.668;23.356;2023-12-29T07:04:20;49.78;;;28.48;;
84854;SDS011;75112;42.668;23.356;2023-12-29T07:06:45;55.40;;;29.42;;
84854;SDS011;75112;42.668;23.356;2023-12-29T07:09:11;52.28;;;26.25;;
84854;SDS011;75112;42.668;23.356;2023-12-29T07:11:36;47.47;;;27.90;;
84854;SDS011;75112;42.668;23.356;2023-12-29T07:14:02;54.95;;;28.60;;
84854;SDS011;75112;42.668;23.356;2023-12-29T07:16:27;47.63;;;27.73;;
84854;SDS011;75112;42.668;23.356;2023-12-29T07:18:53;51.00;;;28.23;;
84854;SDS011;75112;42.668;23.356;2023-12-29T07:21:19;45.92;;;25.95;;
84854;SDS011;75112;42.668;23.356;2023-12-29T07:23:44;113.13;;;53.42;;
84854;SDS011;75112;42.668;23.356;2023-12-29T07:26:10;54.95;;;29.52;;
84854;SDS011;75112;42.668;23.356;2023-12-29T07:28:35;51.80;;;28.02;;
84854;SDS011;75112;42.668;23.356;2023-12-29T07:31:01;48.15;;;26.25;;
84854;SDS011;75112;42.668;23.356;2023-12-29T07:33:26;48.28;;;29.00;;
84854;SDS011;75112;42.668;23.356;2023-12-29T07:35:52;52.13;;;30.67;;
84854;SDS011;75112;42.668;23.356;2023-12-29T07:38:17;54.28;;;29.92;;
84854;SDS011;75112;42.668;23.356;2023-12-29T07:40:43;47.03;;;27.48;;
84854;SDS011;75112;42.668;23.356;2023-12-29T07:43:08;55.45;;;29.92;;
84854;SDS011;75112;42.668;23.356;2023-12-29T07:45:34;58.78;;;32.53;;
84854;SDS011;75112;42.668;23.356;2023-12-29T07:48:01;59.67;;;31.15;;
84854;SDS011;75112;42.668;23.356;2023-12-29T07:50:27;61.08;;;31.73;;
84854;SDS011;75112;42.668;23.356;2023-12-29T07:52:52;56.22;;;30.23;;
84854;SDS011;75112;42.668;23.356;2023-12-29T07:55:18;57.20;;;29.38;;
84854;SDS011;75112;42.668;23.356;2023-12-29T07:57:43;52.58;;;29.17;;
84854;SDS011;75112;42.668;23.356;2023-12-29T08:00:09;58.38;;;30.60;;
84854;SDS011;75112;42.668;23.356;2023-12-29T08:02:35;51.40;;;30.33;;
84854;SDS011;75112;42.668;23.356;2023-12-29T08:05:01;57.17;;;32.13;;
84854;SDS011;75112;42.668;23.356;2023-12-29T08:07:27;58.65;;;30.70;;
84854;SDS011;75112;42.668;23.356;2023-12-29T08:09:52;62.63;;;32.88;;
84854;SDS011;75112;42.668;23.356;2023-12-29T08:12:18;65.57;;;34.03;;
84854;SDS011;75112;42.668;23.356;2023-12-29T08:14:43;67.32;;;35.88;;
84854;SDS011;75112;42.668;23.356;2023-12-29T08:17:08;72.13;;;38.70;;
84854;SDS011;75112;42.668;23.356;2023-12-29T08:19:35;72.78;;;38.03;;
84854;SDS011;75112;42.668;23.356;2023-12-29T08:22:00;80.47;;;39.47;;
84854;SDS011;75112;42.668;23.356;2023-12-29T08:24:25;74.72;;;39.28;;
84854;SDS011;75112;42.668;23.356;2023-12-29T08:26:51;76.20;;;41.83;;
84854;SDS011;75112;42.668;23.356;2023-12-29T08:29:16;73.15;;;38.30;;
84854;SDS011;75112;42.668;23.356;2023-12-29T08:31:44;84.47;;;42.90;;
84854;SDS011;75112;42.668;23.356;2023-12-29T08:34:09;71.60;;;38.47;;
84854;SDS011;75112;42.668;23.356;2023-12-29T08:36:34;74.88;;;38.30;;
84854;SDS011;75112;42.668;23.356;2023-12-29T08:39:00;61.03;;;33.05;;
84854;SDS011;75112;42.668;23.356;2023-12-29T08:41:26;55.03;;;30.98;;
84854;SDS011;75112;42.668;23.356;2023-12-29T08:43:51;57.00;;;31.60;;
84854;SDS011;75112;42.668;23.356;2023-12-29T08:46:17;52.80;;;29.58;;
84854;SDS011;75112;42.668;23.356;2023-12-29T08:48:42;54.75;;;29.17;;
84854;SDS011;75112;42.668;23.356;2023-12-29T08:51:07;50.50;;;28.70;;
84854;SDS011;75112;42.668;23.356;2023-12-29T08:53:33;51.85;;;29.00;;
84854;SDS011;75112;42.668;23.356;2023-12-29T08:56:00;61.53;;;29.55;;
84854;SDS011;75112;42.668;23.356;2023-12-29T08:58:26;48.15;;;27.20;;
84854;SDS011;75112;42.668;23.356;2023-12-29T09:00:52;51.45;;;25.92;;
84854;SDS011;75112;42.668;23.356;2023-12-29T09:03:17;53.30;;;29.13;;
84854;SDS011;75112;42.668;23.356;2023-12-29T09:05:42;45.97;;;27.52;;
84854;SDS011;75112;42.668;23.356;2023-12-29T09:08:08;53.22;;;26.85;;
84854;SDS011;75112;42.668;23.356;2023-12-29T09:10:34;43.88;;;24.42;;
84854;SDS011;75112;42.668;23.356;2023-12-29T09:12:59;46.40;;;24.75;;
84854;SDS011;75112;42.668;23.356;2023-12-29T09:15:24;44.78;;;24.13;;
84854;SDS011;75112;42.668;23.356;2023-12-29T09:17:50;39.58;;;22.63;;
84854;SDS011;75112;42.668;23.356;2023-12-29T09:20:16;39.70;;;22.73;;
84854;SDS011;75112;42.668;23.356;2023-12-29T09:22:44;43.75;;;23.83;;
84854;SDS011;75112;42.668;23.356;2023-12-29T09:25:09;85.38;;;39.35;;
84854;SDS011;75112;42.668;23.356;2023-12-29T09:27:35;46.25;;;23.38;;
84854;SDS011;75112;42.668;23.356;2023-12-29T09:30:00;41.85;;;21.92;;
84854;SDS011;75112;42.668;23.356;2023-12-29T09:32:25;35.30;;;20.17;;
84854;SDS011;75112;42.668;23.356;2023-12-29T09:34:51;38.20;;;21.45;;
84854;SDS011;75112;42.668;23.356;2023-12-29T09:37:17;37.05;;;21.70;;
84854;SDS011;75112;42.668;23.356;2023-12-29T09:39:42;32.83;;;21.23;;
84854;SDS011;75112;42.668;23.356;2023-12-29T09:42:08;36.30;;;20.17;;
84854;SDS011;75112;42.668;23.356;2023-12-29T09:44:50;45.83;;;23.95;;
84854;SDS011;75112;42.668;23.356;2023-12-29T09:47:18;41.70;;;22.42;;
84854;SDS011;75112;42.668;23.356;2023-12-29T09:49:48;40.17;;;22.83;;
84854;SDS011;75112;42.668;23.356;2023-12-29T09:52:13;43.28;;;22.67;;
84854;SDS011;75112;42.668;23.356;2023-12-29T09:54:42;42.53;;;22.02;;
84854;SDS011;75112;42.668;23.356;2023-12-29T09:57:08;41.78;;;22.77;;
84854;SDS011;75112;42.668;23.356;2023-12-29T09:59:36;43.33;;;23.75;;
84854;SDS011;75112;42.668;23.356;2023-12-29T10:02:05;45.78;;;23.42;;
84854;SDS011;75112;42.668;23.356;2023-12-29T10:04:30;65.43;;;44.60;;
84854;SDS011;75112;42.668;23.356;2023-12-29T10:06:56;39.55;;;23.10;;
84854;SDS011;75112;42.668;23.356;2023-12-29T10:09:29;36.03;;;20.88;;
84854;SDS011;75112;42.668;23.356;2023-12-29T10:11:55;37.13;;;22.88;;
84854;SDS011;75112;42.668;23.356;2023-12-29T10:14:22;36.83;;;21.55;;
84854;SDS011;75112;42.668;23.356;2023-12-29T10:17:06;35.78;;;21.33;;
84854;SDS011;75112;42.668;23.356;2023-12-29T10:19:41;35.22;;;22.60;;
84854;SDS011;75112;42.668;23.356;2023-12-29T10:27:12;35.60;;;20.90;;
84854;SDS011;75112;42.668;23.356;2023-12-29T10:29:38;36.78;;;21.52;;
84854;SDS011;75112;42.668;23.356;2023-12-29T10:32:03;39.60;;;22.50;;
84854;SDS011;75112;42.668;23.356;2023-12-29T10:34:29;41.35;;;21.73;;
84854;SDS011;75112;42.668;23.356;2023-12-29T10:36:56;42.13;;;22.50;;
84854;SDS011;75112;42.668;23.356;2023-12-29T10:39:28;37.72;;;21.30;;
84854;SDS011;75112;42.668;23.356;2023-12-29T10:42:03;37.20;;;21.95;;
84854;SDS011;75112;42.668;23.356;2023-12-29T10:44:34;38.20;;;21.48;;
84854;SDS011;75112;42.668;23.356;2023-12-29T10:47:10;37.60;;;23.23;;
84854;SDS011;75112;42.668;23.356;2023-12-29T10:49:36;38.75;;;22.20;;
84854;SDS011;75112;42.668;23.356;2023-12-29T10:52:14;37.67;;;22.13;;
84854;SDS011;75112;42.668;23.356;2023-12-29T10:54:41;37.20;;;22.38;;
84854;SDS011;75112;42.668;23.356;2023-12-29T10:57:11;41.67;;;21.88;;
84854;SDS011;75112;42.668;23.356;2023-12-29T10:59:37;49.72;;;28.30;;
84854;SDS011;75112;42.668;23.356;2023-12-29T11:02:03;44.90;;;25.00;;
84854;SDS011;75112;42.668;23.356;2023-12-29T11:04:28;40.50;;;23.13;;
84854;SDS011;75112;42.668;23.356;2023-12-29T11:06:54;43.40;;;23.60;;
84854;SDS011;75112;42.668;23.356;2023-12-29T11:09:29;46.40;;;23.17;;
84854;SDS011;75112;42.668;23.356;2023-12-29T11:11:56;41.20;;;23.60;;
84854;SDS011;75112;42.668;23.356;2023-12-29T11:14:24;39.50;;;22.75;;
84854;SDS011;75112;42.668;23.356;2023-12-29T11:16:51;37.42;;;22.25;;
84854;SDS011;75112;42.668;23.356;2023-12-29T11:19:17;35.33;;;21.92;;
84854;SDS011;75112;42.668;23.356;2023-12-29T11:21:43;38.20;;;23.08;;
84854;SDS011;75112;42.668;23.356;2023-12-29T11:24:09;36.88;;;22.50;;
84854;SDS011;75112;42.668;23.356;2023-12-29T11:26:35;38.13;;;23.48;;
84854;SDS011;75112;42.668;23.356;2023-12-29T11:29:02;41.55;;;24.60;;
84854;SDS011;75112;42.668;23.356;2023-12-29T11:31:29;35.63;;;21.52;;
84854;SDS011;75112;42.668;23.356;2023-12-29T11:36:40;38.25;;;22.50;;
84854;SDS011;75112;42.668;23.356;2023-12-29T11:41:49;38.40;;;21.52;;
84854;SDS011;75112;42.668;23.356;2023-12-29T11:44:28;39.55;;;21.67;;
84854;SDS011;75112;42.668;23.356;2023-12-29T11:46:55;37.72;;;20.98;;
84854;SDS011;75112;42.668;23.356;2023-12-29T11:49:22;35.28;;;22.67;;
84854;SDS011;75112;42.668;23.356;2023-12-29T11:51:47;37.78;;;21.70;;
84854;SDS011;75112;42.668;23.356;2023-12-29T11:54:22;35.83;;;21.00;;
84854;SDS011;75112;42.668;23.356;2023-12-29T11:56:48;39.08;;;21.88;;
84854;SDS011;75112;42.668;23.356;2023-12-29T12:01:47;34.78;;;21.67;;
84854;SDS011;75112;42.668;23.356;2023-12-29T12:09:46;40.45;;;22.70;;
84854;SDS011;75112;42.668;23.356;2023-12-29T12:12:14;36.38;;;21.75;;
84854;SDS011;75112;42.668;23.356;2023-12-29T12:14:59;41.45;;;26.90;;
84854;SDS011;75112;42.668;23.356;2023-12-29T12:17:27;39.60;;;24.13;;
84854;SDS011;75112;42.668;23.356;2023-12-29T12:19:57;42.83;;;24.63;;
84854;SDS011;75112;42.668;23.356;2023-12-29T12:22:24;42.25;;;23.95;;
84854;SDS011;75112;42.668;23.356;2023-12-29T12:24:57;35.38;;;22.58;;
84854;SDS011;75112;42.668;23.356;2023-12-29T12:27:24;37.67;;;22.85;;
84854;SDS011;75112;42.668;23.356;2023-12-29T12:29:57;38.22;;;24.38;;
84854;SDS011;75112;42.668;23.356;2023-12-29T12:32:27;38.08;;;23.17;;
84854;SDS011;75112;42.668;23.356;2023-12-29T12:34:53;41.75;;;23.85;;
84854;SDS011;75112;42.668;23.356;2023-12-29T12:37:22;38.00;;;22.02;;
84854;SDS011;75112;42.668;23.356;2023-12-29T12:42:18;41.85;;;22.67;;
84854;SDS011;75112;42.668;23.356;2023-12-29T12:47:34;40.60;;;22.77;;
84854;SDS011;75112;42.668;23.356;2023-12-29T12:50:06;38.05;;;22.13;;
84854;SDS011;75112;42.668;23.356;2023-12-29T12:52:35;43.55;;;23.75;;
84854;SDS011;75112;42.668;23.356;2023-12-29T12:55:01;35.65;;;22.60;;
84854;SDS011;75112;42.668;23.356;2023-12-29T12:57:27;48.65;;;25.15;;
84854;SDS011;75112;42.668;23.356;2023-12-29T12:59:54;43.10;;;23.80;;
84854;SDS011;75112;42.668;23.356;2023-12-29T13:02:20;43.05;;;23.40;;
84854;SDS011;75112;42.668;23.356;2023-12-29T13:04:46;41.28;;;21.48;;
84854;SDS011;75112;42.668;23.356;2023-12-29T13:07:15;38.50;;;22.35;;
84854;SDS011;75112;42.668;23.356;2023-12-29T13:09:41;38.25;;;21.45;;
84854;SDS011;75112;42.668;23.356;2023-12-29T13:12:08;43.47;;;22.98;;
84854;SDS011;75112;42.668;23.356;2023-12-29T13:14:37;35.28;;;20.15;;
84854;SDS011;75112;42.668;23.356;2023-12-29T13:17:14;41.65;;;22.48;;
84854;SDS011;75112;42.668;23.356;2023-12-29T13:19:41;42.55;;;21.15;;
84854;SDS011;75112;42.668;23.356;2023-12-29T13:22:09;38.83;;;20.95;;
84854;SDS011;75112;42.668;23.356;2023-12-29T13:24:38;38.30;;;21.15;;
84854;SDS011;75112;42.668;23.356;2023-12-29T13:27:07;33.47;;;20.23;;
84854;SDS011;75112;42.668;23.356;2023-12-29T13:29:36;37.17;;;18.08;;
84854;SDS011;75112;42.668;23.356;2023-12-29T13:32:07;41.00;;;20.35;;
84854;SDS011;75112;42.668;23.356;2023-12-29T13:35:07;32.45;;;17.95;;
84854;SDS011;75112;42.668;23.356;2023-12-29T13:37:51;30.60;;;15.18;;
84854;SDS011;75112;42.668;23.356;2023-12-29T13:40:35;28.40;;;14.95;;
84854;SDS011;75112;42.668;23.356;2023-12-29T13:43:06;31.50;;;15.52;;
84854;SDS011;75112;42.668;23.356;2023-12-29T13:45:33;35.88;;;16.25;;
84854;SDS011;75112;42.668;23.356;2023-12-29T13:48:00;28.25;;;15.77;;
84854;SDS011;75112;42.668;23.356;2023-12-29T13:50:26;25.75;;;15.55;;
84854;SDS011;75112;42.668;23.356;2023-12-29T13:52:52;28.63;;;13.68;;
84854;SDS011;75112;42.668;23.356;2023-12-29T13:55:24;27.95;;;15.15;;
84854;SDS011;75112;42.668;23.356;2023-12-29T13:57:52;26.52;;;13.07;;
84854;SDS011;75112;42.668;23.356;2023-12-29T14:00:19;28.42;;;12.40;;
84854;SDS011;75112;42.668;23.356;2023-12-29T14:08:09;23.33;;;11.32;;
84854;SDS011;75112;42.668;23.356;2023-12-29T14:10:43;23.52;;;10.77;;
84854;SDS011;75112;42.668;23.356;2023-12-29T14:13:10;19.77;;;10.27;;
84854;SDS011;75112;42.668;23.356;2023-12-29T14:15:38;19.38;;;10.45;;
84854;SDS011;75112;42.668;23.356;2023-12-29T14:18:10;18.00;;;10.07;;
84854;SDS011;75112;42.668;23.356;2023-12-29T14:20:46;21.00;;;10.00;;
84854;SDS011;75112;42.668;23.356;2023-12-29T14:23:11;21.27;;;10.20;;
84854;SDS011;75112;42.668;23.356;2023-12-29T14:25:38;19.60;;;10.07;;
84854;SDS011;75112;42.668;23.356;2023-12-29T14:28:04;19.73;;;9.57;;
84854;SDS011;75112;42.668;23.356;2023-12-29T14:30:40;18.38;;;9.48;;
84854;SDS011;75112;42.668;23.356;2023-12-29T14:33:05;15.32;;;8.27;;
84854;SDS011;75112;42.668;23.356;2023-12-29T14:35:31;20.90;;;8.85;;
84854;SDS011;75112;42.668;23.356;2023-12-29T14:37:57;19.98;;;9.82;;